sensor_id;sensor_type;location;lat;lon;timestamp;pressure;altitude;pressure_sealevel;temperature;humidity
55066;BME280;40964;42.114;24.220;2023-05-09T00:00:05;98169.66;;;12.61;100.00
55066;BME280;40964;42.114;24.220;2023-05-09T00:02:31;98165.97;;;12.44;100.00
55066;BME280;40964;42.114;24.220;2023-05-09T00:04:59;98167.00;;;12.25;100.00
55066;BME280;40964;42.114;24.220;2023-05-09T00:07:28;98180.41;;;12.23;100.00
55066;BME280;40964;42.114;24.220;2023-05-09T00:09:54;98176.63;;;12.12;100.00
55066;BME280;40964;42.114;24.220;2023-05-09T00:12:19;98171.28;;;12.19;100.00
55066;BME280;40964;42.114;24.220;2023-05-09T00:14:45;98170.13;;;12.15;100.00
55066;BME280;40964;42.114;24.220;2023-05-09T00:17:14;98170.13;;;12.15;100.00
55066;BME280;40964;42.114;24.220;2023-05-09T00:19:41;98168.88;;;12.17;100.00
55066;BME280;40964;42.114;24.220;2023-05-09T00:22:07;98171.56;;;12.11;100.00
55066;BME280;40964;42.114;24.220;2023-05-09T00:24:33;98172.91;;;12.20;100.00
55066;BME280;40964;42.114;24.220;2023-05-09T00:26:59;98171.56;;;12.11;100.00
55066;BME280;40964;42.114;24.220;2023-05-09T00:29:24;98171.41;;;12.06;100.00
55066;BME280;40964;42.114;24.220;2023-05-09T00:31:50;98164.63;;;11.91;100.00
55066;BME280;40964;42.114;24.220;2023-05-09T00:34:15;98173.53;;;11.97;100.00
55066;BME280;40964;42.114;24.220;2023-05-09T00:36:41;98176.16;;;11.97;100.00
55066;BME280;40964;42.114;24.220;2023-05-09T00:39:06;98179.28;;;11.87;100.00
55066;BME280;40964;42.114;24.220;2023-05-09T00:41:32;98185.94;;;11.90;100.00
55066;BME280;40964;42.114;24.220;2023-05-09T00:43:57;98181.91;;;11.87;100.00
55066;BME280;40964;42.114;24.220;2023-05-09T00:46:23;98188.78;;;11.88;100.00
55066;BME280;40964;42.114;24.220;2023-05-09T00:48:48;98186.09;;;11.95;100.00
55066;BME280;40964;42.114;24.220;2023-05-09T00:51:14;98187.50;;;11.98;100.00
55066;BME280;40964;42.114;24.220;2023-05-09T00:53:39;98178.06;;;11.83;100.00
55066;BME280;40964;42.114;24.220;2023-05-09T00:56:06;98195.81;;;11.94;100.00
55066;BME280;40964;42.114;24.220;2023-05-09T00:58:32;98192.50;;;11.81;100.00
55066;BME280;40964;42.114;24.220;2023-05-09T01:00:57;98178.53;;;11.74;100.00
55066;BME280;40964;42.114;24.220;2023-05-09T01:03:24;98192.28;;;11.82;100.00
55066;BME280;40964;42.114;24.220;2023-05-09T01:11:35;98193.03;;;11.89;100.00
55066;BME280;40964;42.114;24.220;2023-05-09T01:17:19;98202.75;;;11.96;100.00
55066;BME280;40964;42.114;24.220;2023-05-09T01:19:55;98201.09;;;11.94;100.00
55066;BME280;40964;42.114;24.220;2023-05-09T01:22:25;98197.88;;;11.92;100.00
55066;BME280;40964;42.114;24.220;2023-05-09T01:27:57;98203.53;;;11.96;100.00
55066;BME280;40964;42.114;24.220;2023-05-09T01:30:24;98200.94;;;11.89;100.00
55066;BME280;40964;42.114;24.220;2023-05-09T01:32:50;98202.81;;;11.82;100.00
55066;BME280;40964;42.114;24.220;2023-05-09T01:35:20;98195.53;;;11.78;100.00
55066;BME280;40964;42.114;24.220;2023-05-09T01:37:49;98195.31;;;11.79;100.00
55066;BME280;40964;42.114;24.220;2023-05-09T01:40:17;98193.97;;;11.70;100.00
55066;BME280;40964;42.114;24.220;2023-05-09T01:42:57;98190.78;;;11.61;100.00
55066;BME280;40964;42.114;24.220;2023-05-09T01:45:25;98198.63;;;11.68;100.00
55066;BME280;40964;42.114;24.220;2023-05-09T01:47:52;98199.25;;;11.70;100.00
55066;BME280;40964;42.114;24.220;2023-05-09T01:50:18;98195.59;;;11.71;100.00
55066;BME280;40964;42.114;24.220;2023-05-09T01:52:46;98204.50;;;11.70;100.00
55066;BME280;40964;42.114;24.220;2023-05-09T01:55:13;98197.44;;;11.64;100.00
55066;BME280;40964;42.114;24.220;2023-05-09T01:57:41;98202.53;;;11.59;100.00
55066;BME280;40964;42.114;24.220;2023-05-09T02:00:08;98198.34;;;11.51;100.00
55066;BME280;40964;42.114;24.220;2023-05-09T02:02:35;98194.94;;;11.44;100.00
55066;BME280;40964;42.114;24.220;2023-05-09T02:05:01;98208.78;;;11.33;100.00
55066;BME280;40964;42.114;24.220;2023-05-09T02:07:27;98207.56;;;11.35;100.00
55066;BME280;40964;42.114;24.220;2023-05-09T02:09:54;98209.34;;;11.42;100.00
55066;BME280;40964;42.114;24.220;2023-05-09T02:12:22;98208.16;;;11.31;100.00
55066;BME280;40964;42.114;24.220;2023-05-09T02:14:48;98207.56;;;11.29;100.00
55066;BME280;40964;42.114;24.220;2023-05-09T02:17:13;98205.13;;;11.34;100.00
55066;BME280;40964;42.114;24.220;2023-05-09T02:19:41;98198.97;;;11.47;100.00
55066;BME280;40964;42.114;24.220;2023-05-09T02:22:07;98201.44;;;11.42;100.00
55066;BME280;40964;42.114;24.220;2023-05-09T02:24:33;98193.94;;;11.38;100.00
55066;BME280;40964;42.114;24.220;2023-05-09T02:26:59;98191.91;;;11.41;100.00
55066;BME280;40964;42.114;24.220;2023-05-09T02:29:33;98209.34;;;11.42;100.00
55066;BME280;40964;42.114;24.220;2023-05-09T02:32:07;98208.50;;;11.41;100.00
55066;BME280;40964;42.114;24.220;2023-05-09T02:34:35;98224.72;;;11.45;100.00
55066;BME280;40964;42.114;24.220;2023-05-09T02:37:01;98214.81;;;11.40;100.00
55066;BME280;40964;42.114;24.220;2023-05-09T02:39:27;98225.78;;;11.37;100.00
55066;BME280;40964;42.114;24.220;2023-05-09T02:41:53;98223.94;;;11.37;100.00
55066;BME280;40964;42.114;24.220;2023-05-09T02:44:18;98230.69;;;11.27;100.00
55066;BME280;40964;42.114;24.220;2023-05-09T02:46:44;98222.81;;;11.20;100.00
55066;BME280;40964;42.114;24.220;2023-05-09T02:49:09;98230.13;;;11.18;100.00
55066;BME280;40964;42.114;24.220;2023-05-09T02:51:35;98232.31;;;11.21;100.00
55066;BME280;40964;42.114;24.220;2023-05-09T02:54:00;98233.94;;;11.22;100.00
55066;BME280;40964;42.114;24.220;2023-05-09T02:56:26;98224.19;;;11.29;100.00
55066;BME280;40964;42.114;24.220;2023-05-09T02:58:51;98217.53;;;11.27;100.00
55066;BME280;40964;42.114;24.220;2023-05-09T03:01:16;98230.69;;;11.27;100.00
55066;BME280;40964;42.114;24.220;2023-05-09T03:03:45;98228.25;;;11.25;100.00
55066;BME280;40964;42.114;24.220;2023-05-09T03:06:10;98236.31;;;11.30;100.00
55066;BME280;40964;42.114;24.220;2023-05-09T03:08:36;98237.56;;;11.28;100.00
55066;BME280;40964;42.114;24.220;2023-05-09T03:11:01;98231.06;;;11.30;100.00
55066;BME280;40964;42.114;24.220;2023-05-09T03:13:27;98241.78;;;11.35;100.00
55066;BME280;40964;42.114;24.220;2023-05-09T03:15:52;98239.75;;;11.31;100.00
55066;BME280;40964;42.114;24.220;2023-05-09T03:18:17;98239.59;;;11.26;100.00
55066;BME280;40964;42.114;24.220;2023-05-09T03:20:43;98241.06;;;11.15;100.00
55066;BME280;40964;42.114;24.220;2023-05-09T03:23:08;98242.94;;;11.01;100.00
55066;BME280;40964;42.114;24.220;2023-05-09T03:25:34;98248.84;;;10.97;100.00
55066;BME280;40964;42.114;24.220;2023-05-09T03:28:00;98244.56;;;10.96;100.00
55066;BME280;40964;42.114;24.220;2023-05-09T03:30:25;98252.22;;;11.04;100.00
55066;BME280;40964;42.114;24.220;2023-05-09T03:32:51;98251.63;;;11.08;100.00
55066;BME280;40964;42.114;24.220;2023-05-09T03:35:17;98259.09;;;11.05;100.00
55066;BME280;40964;42.114;24.220;2023-05-09T03:37:42;98253.00;;;11.18;100.00
55066;BME280;40964;42.114;24.220;2023-05-09T03:40:08;98256.47;;;11.05;100.00
55066;BME280;40964;42.114;24.220;2023-05-09T03:42:33;98259.75;;;11.00;100.00
55066;BME280;40964;42.114;24.220;2023-05-09T03:44:59;98258.78;;;10.88;100.00
55066;BME280;40964;42.114;24.220;2023-05-09T03:47:24;98258.78;;;10.88;100.00
55066;BME280;40964;42.114;24.220;2023-05-09T03:49:50;98261.19;;;10.90;100.00
55066;BME280;40964;42.114;24.220;2023-05-09T03:52:15;98250.91;;;10.82;100.00
55066;BME280;40964;42.114;24.220;2023-05-09T03:54:40;98261.38;;;10.95;100.00
55066;BME280;40964;42.114;24.220;2023-05-09T03:57:06;98272.09;;;11.06;100.00
55066;BME280;40964;42.114;24.220;2023-05-09T03:59:31;98265.16;;;11.12;100.00
55066;BME280;40964;42.114;24.220;2023-05-09T04:01:57;98269.22;;;11.15;100.00
55066;BME280;40964;42.114;24.220;2023-05-09T04:04:22;98276.13;;;11.09;100.00
55066;BME280;40964;42.114;24.220;2023-05-09T04:06:48;98274.13;;;10.98;100.00
55066;BME280;40964;42.114;24.220;2023-05-09T04:09:13;98283.63;;;11.05;100.00
55066;BME280;40964;42.114;24.220;2023-05-09T04:11:39;98281.38;;;11.16;100.00
55066;BME280;40964;42.114;24.220;2023-05-09T04:14:05;98283.78;;;11.17;100.00
55066;BME280;40964;42.114;24.220;2023-05-09T04:16:32;98278.91;;;11.14;100.00
55066;BME280;40964;42.114;24.220;2023-05-09T04:18:57;98270.78;;;11.22;100.00
55066;BME280;40964;42.114;24.220;2023-05-09T04:21:23;98275.66;;;11.25;100.00
55066;BME280;40964;42.114;24.220;2023-05-09T04:23:48;98280.56;;;11.15;100.00
55066;BME280;40964;42.114;24.220;2023-05-09T04:26:13;98281.31;;;11.22;100.00
55066;BME280;40964;42.114;24.220;2023-05-09T04:28:39;98282.75;;;11.25;100.00
55066;BME280;40964;42.114;24.220;2023-05-09T04:31:05;98277.69;;;11.23;100.00
55066;BME280;40964;42.114;24.220;2023-05-09T04:33:30;98284.38;;;11.19;100.00
55066;BME280;40964;42.114;24.220;2023-05-09T04:35:56;98293.09;;;11.13;100.00
55066;BME280;40964;42.114;24.220;2023-05-09T04:38:22;98297.78;;;11.04;100.00
55066;BME280;40964;42.114;24.220;2023-05-09T04:40:47;98290.13;;;10.90;100.00
55066;BME280;40964;42.114;24.220;2023-05-09T04:43:13;98292.56;;;10.98;100.00
55066;BME280;40964;42.114;24.220;2023-05-09T04:45:38;98292.56;;;10.98;100.00
55066;BME280;40964;42.114;24.220;2023-05-09T04:48:04;98293.56;;;10.97;100.00
55066;BME280;40964;42.114;24.220;2023-05-09T04:50:30;98293.38;;;10.92;100.00
55066;BME280;40964;42.114;24.220;2023-05-09T04:52:55;98293.38;;;10.92;100.00
55066;BME280;40964;42.114;24.220;2023-05-09T04:55:21;98297.19;;;10.96;100.00
55066;BME280;40964;42.114;24.220;2023-05-09T04:57:46;98292.34;;;10.99;100.00
55066;BME280;40964;42.114;24.220;2023-05-09T05:00:12;98289.13;;;10.97;100.00
55066;BME280;40964;42.114;24.220;2023-05-09T05:02:39;98298.84;;;10.84;100.00
55066;BME280;40964;42.114;24.220;2023-05-09T05:05:05;98290.78;;;10.78;100.00
55066;BME280;40964;42.114;24.220;2023-05-09T05:07:30;98296.22;;;10.77;100.00
55066;BME280;40964;42.114;24.220;2023-05-09T05:09:55;98297.22;;;10.83;100.00
55066;BME280;40964;42.114;24.220;2023-05-09T05:12:21;98296.03;;;10.78;100.00
55066;BME280;40964;42.114;24.220;2023-05-09T05:14:46;98299.28;;;10.67;100.00
55066;BME280;40964;42.114;24.220;2023-05-09T05:17:12;98296.44;;;10.69;100.00
55066;BME280;40964;42.114;24.220;2023-05-09T05:19:37;98290.78;;;10.65;100.00
55066;BME280;40964;42.114;24.220;2023-05-09T05:22:03;98294.81;;;10.68;100.00
55066;BME280;40964;42.114;24.220;2023-05-09T05:24:28;98290.78;;;10.78;100.00
55066;BME280;40964;42.114;24.220;2023-05-09T05:26:54;98287.91;;;10.87;100.00
55066;BME280;40964;42.114;24.220;2023-05-09T05:29:19;98293.78;;;10.82;100.00
55066;BME280;40964;42.114;24.220;2023-05-09T05:31:45;98295.41;;;10.83;100.00
55066;BME280;40964;42.114;24.220;2023-05-09T05:34:10;98294.56;;;10.96;100.00
55066;BME280;40964;42.114;24.220;2023-05-09T05:36:35;98296.00;;;10.98;100.00
55066;BME280;40964;42.114;24.220;2023-05-09T05:39:01;98291.91;;;11.02;100.00
55066;BME280;40964;42.114;24.220;2023-05-09T05:41:26;98289.94;;;10.98;100.00
55066;BME280;40964;42.114;24.220;2023-05-09T05:43:52;98300.03;;;11.01;100.00
55066;BME280;40964;42.114;24.220;2023-05-09T05:46:17;98299.81;;;10.96;100.00
55066;BME280;40964;42.114;24.220;2023-05-09T05:48:42;98306.72;;;10.97;100.00
55066;BME280;40964;42.114;24.220;2023-05-09T05:51:08;98308.13;;;11.06;100.00
55066;BME280;40964;42.114;24.220;2023-05-09T05:53:33;98304.91;;;10.97;100.00
55066;BME280;40964;42.114;24.220;2023-05-09T05:55:59;98303.47;;;10.95;100.00
55066;BME280;40964;42.114;24.220;2023-05-09T05:58:24;98306.31;;;10.93;100.00
55066;BME280;40964;42.114;24.220;2023-05-09T06:00:51;98307.34;;;10.92;100.00
55066;BME280;40964;42.114;24.220;2023-05-09T06:03:17;98305.09;;;10.96;100.00
55066;BME280;40964;42.114;24.220;2023-05-09T06:05:42;98308.94;;;11.00;100.00
55066;BME280;40964;42.114;24.220;2023-05-09T06:08:08;98306.09;;;11.01;100.00
55066;BME280;40964;42.114;24.220;2023-05-09T06:10:34;98310.97;;;10.98;100.00
55066;BME280;40964;42.114;24.220;2023-05-09T06:12:59;98311.56;;;11.00;100.00
55066;BME280;40964;42.114;24.220;2023-05-09T06:15:24;98317.25;;;10.97;100.00
55066;BME280;40964;42.114;24.220;2023-05-09T06:17:50;98311.78;;;10.98;100.00
55066;BME280;40964;42.114;24.220;2023-05-09T06:20:15;98311.34;;;11.01;100.00
55066;BME280;40964;42.114;24.220;2023-05-09T06:22:41;98320.88;;;11.09;100.00
55066;BME280;40964;42.114;24.220;2023-05-09T06:25:06;98319.03;;;11.09;100.00
55066;BME280;40964;42.114;24.220;2023-05-09T06:27:32;98325.50;;;11.14;100.00
55066;BME280;40964;42.114;24.220;2023-05-09T06:29:58;98326.72;;;11.18;100.00
55066;BME280;40964;42.114;24.220;2023-05-09T06:32:23;98324.09;;;11.11;100.00
55066;BME280;40964;42.114;24.220;2023-05-09T06:34:49;98318.84;;;11.04;100.00
55066;BME280;40964;42.114;24.220;2023-05-09T06:37:14;98318.66;;;11.06;100.00
55066;BME280;40964;42.114;24.220;2023-05-09T06:39:40;98318.00;;;11.17;100.00
55066;BME280;40964;42.114;24.220;2023-05-09T06:42:05;98326.72;;;11.04;100.00
55066;BME280;40964;42.114;24.220;2023-05-09T06:44:31;98326.13;;;11.09;100.00
55066;BME280;40964;42.114;24.220;2023-05-09T06:46:57;98312.19;;;10.95;100.00
55066;BME280;40964;42.114;24.220;2023-05-09T06:49:22;98323.13;;;10.99;100.00
55066;BME280;40964;42.114;24.220;2023-05-09T06:51:48;98326.13;;;10.96;100.00
55066;BME280;40964;42.114;24.220;2023-05-09T06:54:13;98331.44;;;10.89;100.00
55066;BME280;40964;42.114;24.220;2023-05-09T06:56:38;98328.00;;;10.89;100.00
55066;BME280;40964;42.114;24.220;2023-05-09T06:59:04;98328.19;;;10.87;100.00
55066;BME280;40964;42.114;24.220;2023-05-09T07:01:29;98337.31;;;10.85;100.00
55066;BME280;40964;42.114;24.220;2023-05-09T07:03:55;98329.00;;;10.74;100.00
55066;BME280;40964;42.114;24.220;2023-05-09T07:06:20;98326.19;;;10.76;100.00
55066;BME280;40964;42.114;24.220;2023-05-09T07:08:46;98324.97;;;10.65;100.00
55066;BME280;40964;42.114;24.220;2023-05-09T07:11:11;98326.19;;;10.56;100.00
55066;BME280;40964;42.114;24.220;2023-05-09T07:13:37;98327.22;;;10.62;100.00
55066;BME280;40964;42.114;24.220;2023-05-09T07:16:02;98321.31;;;10.60;100.00
55066;BME280;40964;42.114;24.220;2023-05-09T07:18:28;98324.97;;;10.65;100.00
55066;BME280;40964;42.114;24.220;2023-05-09T07:20:54;98330.44;;;10.57;100.00
55066;BME280;40964;42.114;24.220;2023-05-09T07:23:19;98321.34;;;10.53;100.00
55066;BME280;40964;42.114;24.220;2023-05-09T07:25:44;98330.66;;;10.49;100.00
55066;BME280;40964;42.114;24.220;2023-05-09T07:28:10;98328.44;;;10.46;100.00
55066;BME280;40964;42.114;24.220;2023-05-09T07:30:37;98330.66;;;10.56;100.00
55066;BME280;40964;42.114;24.220;2023-05-09T07:33:02;98328.03;;;10.62;100.00
55066;BME280;40964;42.114;24.220;2023-05-09T07:35:28;98332.88;;;10.59;100.00
55066;BME280;40964;42.114;24.220;2023-05-09T07:37:53;98332.69;;;10.54;100.00
55066;BME280;40964;42.114;24.220;2023-05-09T07:40:19;98337.31;;;10.58;100.00
55066;BME280;40964;42.114;24.220;2023-05-09T07:42:44;98334.09;;;10.63;100.00
55066;BME280;40964;42.114;24.220;2023-05-09T07:45:16;98332.88;;;10.59;100.00
55066;BME280;40964;42.114;24.220;2023-05-09T07:47:42;98327.41;;;10.54;100.00
55066;BME280;40964;42.114;24.220;2023-05-09T07:50:07;98338.13;;;10.59;100.00
55066;BME280;40964;42.114;24.220;2023-05-09T07:52:33;98336.31;;;10.52;100.00
55066;BME280;40964;42.114;24.220;2023-05-09T07:54:58;98340.34;;;10.48;100.00
55066;BME280;40964;42.114;24.220;2023-05-09T07:57:23;98333.47;;;10.41;100.00
55066;BME280;40964;42.114;24.220;2023-05-09T07:59:49;98339.75;;;10.53;100.00
55066;BME280;40964;42.114;24.220;2023-05-09T08:02:14;98337.50;;;10.50;100.00
55066;BME280;40964;42.114;24.220;2023-05-09T08:04:40;98337.94;;;10.47;100.00
55066;BME280;40964;42.114;24.220;2023-05-09T08:07:05;98342.56;;;10.58;100.00
55066;BME280;40964;42.114;24.220;2023-05-09T08:09:32;98340.56;;;10.67;100.00
55066;BME280;40964;42.114;24.220;2023-05-09T08:11:57;98343.00;;;10.62;100.00
55066;BME280;40964;42.114;24.220;2023-05-09T08:14:23;98339.75;;;10.66;100.00
55066;BME280;40964;42.114;24.220;2023-05-09T08:16:48;98333.88;;;10.51;100.00
55066;BME280;40964;42.114;24.220;2023-05-09T08:19:13;98339.94;;;10.58;100.00
55066;BME280;40964;42.114;24.220;2023-05-09T08:21:39;98346.22;;;10.70;100.00
55066;BME280;40964;42.114;24.220;2023-05-09T08:24:04;98337.72;;;10.75;100.00
55066;BME280;40964;42.114;24.220;2023-05-09T08:26:33;98287.16;;;10.53;100.00
55066;BME280;40964;42.114;24.220;2023-05-09T08:28:59;98346.22;;;10.90;100.00
55066;BME280;40964;42.114;24.220;2023-05-09T08:31:25;98343.75;;;10.95;100.00
55066;BME280;40964;42.114;24.220;2023-05-09T08:33:51;98346.22;;;10.90;100.00
55066;BME280;40964;42.114;24.220;2023-05-09T08:36:16;98333.44;;;10.94;100.00
55066;BME280;40964;42.114;24.220;2023-05-09T08:38:42;98333.22;;;10.95;100.00
55066;BME280;40964;42.114;24.220;2023-05-09T08:41:07;98333.22;;;10.95;100.00
55066;BME280;40964;42.114;24.220;2023-05-09T08:43:33;98334.88;;;10.96;100.00
55066;BME280;40964;42.114;24.220;2023-05-09T08:46:04;98332.41;;;10.95;100.00
55066;BME280;40964;42.114;24.220;2023-05-09T08:48:33;98319.91;;;10.77;100.00
55066;BME280;40964;42.114;24.220;2023-05-09T08:50:58;98330.81;;;10.94;100.00
55066;BME280;40964;42.114;24.220;2023-05-09T08:53:25;98339.75;;;10.79;100.00
55066;BME280;40964;42.114;24.220;2023-05-09T08:55:51;98325.16;;;10.84;100.00
55066;BME280;40964;42.114;24.220;2023-05-09T08:58:18;98330.44;;;10.70;100.00
55066;BME280;40964;42.114;24.220;2023-05-09T09:00:44;98321.13;;;10.68;100.00
55066;BME280;40964;42.114;24.220;2023-05-09T09:03:10;98319.94;;;10.64;100.00
55066;BME280;40964;42.114;24.220;2023-05-09T09:05:37;98323.34;;;10.77;100.00
55066;BME280;40964;42.114;24.220;2023-05-09T09:08:06;98322.34;;;10.78;100.00
55066;BME280;40964;42.114;24.220;2023-05-09T09:10:32;98326.38;;;10.68;100.00
55066;BME280;40964;42.114;24.220;2023-05-09T09:13:02;98320.31;;;10.67;100.00
55066;BME280;40964;42.114;24.220;2023-05-09T09:15:33;98323.97;;;10.79;100.00
55066;BME280;40964;42.114;24.220;2023-05-09T09:18:04;98305.72;;;10.78;100.00
55066;BME280;40964;42.114;24.220;2023-05-09T09:20:30;98315.81;;;10.94;100.00
55066;BME280;40964;42.114;24.220;2023-05-09T09:22:58;98323.13;;;11.05;100.00
55066;BME280;40964;42.114;24.220;2023-05-09T09:25:28;98325.75;;;10.99;100.00
55066;BME280;40964;42.114;24.220;2023-05-09T09:27:53;98331.66;;;10.88;100.00
55066;BME280;40964;42.114;24.220;2023-05-09T09:30:22;98331.22;;;10.91;100.00
55066;BME280;40964;42.114;24.220;2023-05-09T09:32:47;98335.84;;;11.02;100.00
55066;BME280;40964;42.114;24.220;2023-05-09T09:35:13;98325.31;;;11.15;100.00
55066;BME280;40964;42.114;24.220;2023-05-09T09:37:39;98333.97;;;11.29;100.00
55066;BME280;40964;42.114;24.220;2023-05-09T09:40:09;98327.69;;;11.30;100.00
55066;BME280;40964;42.114;24.220;2023-05-09T09:42:45;98305.88;;;11.09;100.00
55066;BME280;40964;42.114;24.220;2023-05-09T09:45:16;98339.28;;;11.16;100.00
55066;BME280;40964;42.114;24.220;2023-05-09T09:47:42;98333.22;;;11.08;100.00
55066;BME280;40964;42.114;24.220;2023-05-09T09:50:13;98338.06;;;11.05;100.00
55066;BME280;40964;42.114;24.220;2023-05-09T09:52:53;98330.16;;;11.05;100.00
55066;BME280;40964;42.114;24.220;2023-05-09T09:55:21;98326.72;;;11.11;100.00
55066;BME280;40964;42.114;24.220;2023-05-09T09:57:47;98326.13;;;11.09;100.00
55066;BME280;40964;42.114;24.220;2023-05-09T10:00:14;98325.91;;;11.17;100.00
55066;BME280;40964;42.114;24.220;2023-05-09T10:05:21;98329.72;;;11.21;100.00
55066;BME280;40964;42.114;24.220;2023-05-09T10:08:03;98335.19;;;11.26;100.00
55066;BME280;40964;42.114;24.220;2023-05-09T10:10:31;98337.84;;;11.20;100.00
55066;BME280;40964;42.114;24.220;2023-05-09T10:13:01;98339.66;;;11.19;100.00
55066;BME280;40964;42.114;24.220;2023-05-09T10:15:28;98337.03;;;11.19;100.00
55066;BME280;40964;42.114;24.220;2023-05-09T10:17:56;98323.06;;;11.12;100.00
55066;BME280;40964;42.114;24.220;2023-05-09T10:20:23;98332.13;;;11.29;100.00
55066;BME280;40964;42.114;24.220;2023-05-09T10:22:53;98329.50;;;11.29;100.00
55066;BME280;40964;42.114;24.220;2023-05-09T10:25:21;98315.97;;;11.13;100.00
55066;BME280;40964;42.114;24.220;2023-05-09T10:27:48;98315.38;;;11.11;100.00
55066;BME280;40964;42.114;24.220;2023-05-09T10:30:22;98326.88;;;11.29;100.00
55066;BME280;40964;42.114;24.220;2023-05-09T10:38:00;98328.31;;;11.25;100.00
55066;BME280;40964;42.114;24.220;2023-05-09T10:40:30;98327.91;;;11.22;100.00
55066;BME280;40964;42.114;24.220;2023-05-09T10:42:56;98333.16;;;11.28;100.00
55066;BME280;40964;42.114;24.220;2023-05-09T10:45:21;98332.13;;;11.29;100.00
55066;BME280;40964;42.114;24.220;2023-05-09T10:47:49;98333.34;;;11.33;100.00
55066;BME280;40964;42.114;24.220;2023-05-09T10:50:17;98310.75;;;11.06;100.00
55066;BME280;40964;42.114;24.220;2023-05-09T10:53:19;98330.97;;;11.12;100.00
55066;BME280;40964;42.114;24.220;2023-05-09T10:55:55;98333.59;;;11.12;100.00
55066;BME280;40964;42.114;24.220;2023-05-09T11:00:55;98332.19;;;11.16;100.00
55066;BME280;40964;42.114;24.220;2023-05-09T11:03:21;98334.81;;;11.16;100.00
55066;BME280;40964;42.114;24.220;2023-05-09T11:05:50;98332.41;;;11.15;100.00
55066;BME280;40964;42.114;24.220;2023-05-09T11:08:27;98335.84;;;11.15;100.00
55066;BME280;40964;42.114;24.220;2023-05-09T11:10:55;98333.16;;;11.22;100.00
55066;BME280;40964;42.114;24.220;2023-05-09T11:13:24;98331.78;;;11.19;100.00
55066;BME280;40964;42.114;24.220;2023-05-09T11:18:26;98329.13;;;11.26;100.00
55066;BME280;40964;42.114;24.220;2023-05-09T11:20:53;98334.16;;;11.34;100.00
55066;BME280;40964;42.114;24.220;2023-05-09T11:23:20;98329.91;;;11.33;100.00
55066;BME280;40964;42.114;24.220;2023-05-09T11:25:47;98343.09;;;11.33;100.00
55066;BME280;40964;42.114;24.220;2023-05-09T11:28:33;98341.03;;;11.35;100.00
55066;BME280;40964;42.114;24.220;2023-05-09T11:31:12;98347.09;;;11.42;100.00
55066;BME280;40964;42.114;24.220;2023-05-09T11:33:39;98334.75;;;11.43;100.00
55066;BME280;40964;42.114;24.220;2023-05-09T11:36:29;98339.59;;;11.46;100.00
55066;BME280;40964;42.114;24.220;2023-05-09T11:39:05;98339.59;;;11.39;100.00
55066;BME280;40964;42.114;24.220;2023-05-09T11:41:42;98337.00;;;11.32;100.00
55066;BME280;40964;42.114;24.220;2023-05-09T11:44:15;98336.38;;;11.37;100.00
55066;BME280;40964;42.114;24.220;2023-05-09T11:46:41;98329.84;;;11.46;100.00
55066;BME280;40964;42.114;24.220;2023-05-09T11:49:07;98332.44;;;11.59;100.00
55066;BME280;40964;42.114;24.220;2023-05-09T11:51:35;98319.00;;;11.74;100.00
55066;BME280;40964;42.114;24.220;2023-05-09T11:54:05;98318.41;;;11.72;100.00
55066;BME280;40964;42.114;24.220;2023-05-09T11:56:31;98324.03;;;11.76;100.00
55066;BME280;40964;42.114;24.220;2023-05-09T11:58:58;98306.66;;;11.68;100.00
55066;BME280;40964;42.114;24.220;2023-05-09T12:01:23;98315.53;;;11.74;100.00
55066;BME280;40964;42.114;24.220;2023-05-09T12:03:49;98323.63;;;11.79;100.00
55066;BME280;40964;42.114;24.220;2023-05-09T12:06:17;98325.06;;;11.75;100.00
55066;BME280;40964;42.114;24.220;2023-05-09T12:08:46;98326.69;;;11.76;100.00
55066;BME280;40964;42.114;24.220;2023-05-09T12:11:13;98323.44;;;11.80;100.00
55066;BME280;40964;42.114;24.220;2023-05-09T12:13:49;98318.56;;;11.84;100.00
55066;BME280;40964;42.114;24.220;2023-05-09T12:16:17;98313.72;;;11.74;100.00
55066;BME280;40964;42.114;24.220;2023-05-09T12:18:49;98309.66;;;11.78;100.00
55066;BME280;40964;42.114;24.220;2023-05-09T12:21:19;98317.53;;;11.85;100.00
55066;BME280;40964;42.114;24.220;2023-05-09T12:23:45;98311.66;;;11.89;100.00
55066;BME280;40964;42.114;24.220;2023-05-09T12:26:11;98301.06;;;11.96;100.00
55066;BME280;40964;42.114;24.220;2023-05-09T12:28:38;98310.19;;;11.93;100.00
55066;BME280;40964;42.114;24.220;2023-05-09T12:31:04;98292.59;;;11.87;100.00
55066;BME280;40964;42.114;24.220;2023-05-09T12:33:30;98292.94;;;11.98;100.00
55066;BME280;40964;42.114;24.220;2023-05-09T12:36:08;98310.88;;;12.14;100.00
55066;BME280;40964;42.114;24.220;2023-05-09T12:38:35;98308.06;;;12.09;100.00
55066;BME280;40964;42.114;24.220;2023-05-09T12:41:08;98295.44;;;12.17;100.00
55066;BME280;40964;42.114;24.220;2023-05-09T12:43:36;98304.75;;;12.20;100.00
55066;BME280;40964;42.114;24.220;2023-05-09T12:46:03;98302.53;;;12.17;100.00
55066;BME280;40964;42.114;24.220;2023-05-09T12:48:33;98304.25;;;12.05;100.00
55066;BME280;40964;42.114;24.220;2023-05-09T12:51:05;98305.16;;;11.85;100.00
55066;BME280;40964;42.114;24.220;2023-05-09T12:53:36;98296.09;;;11.81;100.00
55066;BME280;40964;42.114;24.220;2023-05-09T12:56:03;98291.84;;;11.80;100.00
55066;BME280;40964;42.114;24.220;2023-05-09T12:58:32;98297.47;;;11.84;100.00
55066;BME280;40964;42.114;24.220;2023-05-09T13:01:01;98296.03;;;11.88;100.00
55066;BME280;40964;42.114;24.220;2023-05-09T13:03:28;98299.88;;;11.92;100.00